createdAt,value
2022-11-17T00:00:48.461Z,52.75
2022-11-17T00:03:14.854Z,52.77
2022-11-17T00:05:41.213Z,53.06
2022-11-17T00:08:07.584Z,52.85
2022-11-17T00:10:33.950Z,53.13
2022-11-17T00:13:00.349Z,52.57
2022-11-17T00:15:26.719Z,52.82
2022-11-17T00:17:53.112Z,52.38
2022-11-17T00:20:19.496Z,51.65
2022-11-17T00:22:45.895Z,52.18
2022-11-17T00:25:12.258Z,51.92
2022-11-17T00:27:38.634Z,51.60
2022-11-17T00:30:05.007Z,51.87
2022-11-17T00:32:31.372Z,51.97
2022-11-17T00:34:57.736Z,51.34
2022-11-17T00:37:24.105Z,52.19
2022-11-17T00:39:50.474Z,50.96
2022-11-17T00:42:16.838Z,51.31
2022-11-17T00:44:43.200Z,50.78
2022-11-17T00:47:09.576Z,50.37
2022-11-17T00:49:35.945Z,50.67
2022-11-17T00:52:02.302Z,49.85
2022-11-17T00:54:28.673Z,49.57
2022-11-17T00:56:55.050Z,49.07
2022-11-17T00:59:21.427Z,48.96
2022-11-17T01:01:47.816Z,48.49
2022-11-17T01:04:14.238Z,48.50
2022-11-17T01:06:40.622Z,48.10
2022-11-17T01:09:06.997Z,48.49
2022-11-17T01:11:33.414Z,47.52
2022-11-17T01:13:59.779Z,48.97
2022-11-17T01:16:26.160Z,50.22
2022-11-17T01:18:52.558Z,50.82
2022-11-17T01:21:18.944Z,52.49
2022-11-17T01:23:45.342Z,52.16
2022-11-17T01:26:11.703Z,52.52
2022-11-17T01:28:38.071Z,52.80
2022-11-17T01:31:04.427Z,52.84
2022-11-17T01:33:30.793Z,53.21
2022-11-17T01:35:57.175Z,52.90
2022-11-17T01:38:23.535Z,53.53
2022-11-17T01:40:49.914Z,52.68
2022-11-17T01:43:16.293Z,53.17
2022-11-17T01:45:42.661Z,52.87
2022-11-17T01:48:09.019Z,55.27
2022-11-17T01:50:35.384Z,55.42
2022-11-17T01:53:01.782Z,54.81
2022-11-17T01:55:28.145Z,54.88
2022-11-17T01:57:54.517Z,55.08
2022-11-17T02:00:20.877Z,53.91
2022-11-17T02:02:47.251Z,55.06
2022-11-17T02:05:13.615Z,55.01
2022-11-17T02:07:39.998Z,55.08
2022-11-17T02:10:06.361Z,54.82
2022-11-17T02:12:32.747Z,54.00
2022-11-17T02:14:59.130Z,53.91
2022-11-17T02:17:25.495Z,53.62
2022-11-17T02:19:51.871Z,53.82
2022-11-17T02:22:18.234Z,53.02
2022-11-17T02:24:44.605Z,52.88
2022-11-17T02:27:10.977Z,52.88
2022-11-17T02:29:37.346Z,51.91
2022-11-17T02:32:03.741Z,52.72
2022-11-17T02:34:30.124Z,52.44
2022-11-17T02:36:56.488Z,52.79
2022-11-17T02:39:22.867Z,53.75
2022-11-17T02:41:49.242Z,54.69
2022-11-17T02:44:15.603Z,53.55
2022-11-17T02:46:41.973Z,53.48
2022-11-17T02:49:08.344Z,53.50
2022-11-17T02:51:34.729Z,53.65
2022-11-17T02:54:01.087Z,54.08
2022-11-17T02:56:27.458Z,54.49
2022-11-17T02:58:53.819Z,55.21
2022-11-17T03:01:20.234Z,54.79
2022-11-17T03:03:46.804Z,55.67
2022-11-17T03:06:13.162Z,56.11
2022-11-17T03:08:39.557Z,55.73
2022-11-17T03:11:05.936Z,55.85
2022-11-17T03:13:32.547Z,55.36
2022-11-17T03:15:59.083Z,55.97
2022-11-17T03:18:25.478Z,55.47
2022-11-17T03:20:51.849Z,55.29
2022-11-17T03:23:18.211Z,54.97
2022-11-17T03:25:44.600Z,56.03
2022-11-17T03:28:10.980Z,55.77
2022-11-17T03:30:37.723Z,55.21
2022-11-17T03:33:04.198Z,56.19
2022-11-17T03:35:30.572Z,56.55
2022-11-17T03:37:56.967Z,57.57
2022-11-17T03:40:23.340Z,56.81
2022-11-17T03:42:49.698Z,55.58
2022-11-17T03:45:16.078Z,55.71
2022-11-17T03:47:42.414Z,55.20
2022-11-17T03:50:08.787Z,55.29
2022-11-17T03:52:35.166Z,54.94
2022-11-17T03:55:01.540Z,54.53
2022-11-17T03:57:27.917Z,54.84
2022-11-17T03:59:54.279Z,55.02
2022-11-17T04:02:20.667Z,54.84
2022-11-17T04:04:47.048Z,55.32
2022-11-17T04:07:13.464Z,54.88
2022-11-17T04:09:39.879Z,55.00
2022-11-17T04:12:06.247Z,54.82
2022-11-17T04:14:32.615Z,55.77
2022-11-17T04:16:58.996Z,55.31
2022-11-17T04:19:25.357Z,55.17
2022-11-17T04:21:51.719Z,55.73
2022-11-17T04:24:18.079Z,55.92
2022-11-17T04:26:44.447Z,55.56
2022-11-17T04:29:10.831Z,55.12
2022-11-17T04:31:37.185Z,54.98
2022-11-17T04:34:03.590Z,54.93
2022-11-17T04:36:29.986Z,55.02
2022-11-17T04:38:56.343Z,54.50
2022-11-17T04:41:22.710Z,54.28
2022-11-17T04:43:49.081Z,54.67
2022-11-17T04:46:15.477Z,54.60
2022-11-17T04:48:41.845Z,53.80
2022-11-17T04:51:08.212Z,53.35
2022-11-17T04:53:34.865Z,53.26
2022-11-17T04:56:01.481Z,54.61
2022-11-17T04:58:27.872Z,53.62
2022-11-17T05:00:54.259Z,53.46
2022-11-17T05:03:20.652Z,54.14
2022-11-17T05:05:47.022Z,53.77
2022-11-17T05:08:13.382Z,53.22
2022-11-17T05:10:39.953Z,53.76
2022-11-17T05:13:06.341Z,53.14
2022-11-17T05:15:32.714Z,53.20
2022-11-17T05:17:59.079Z,52.89
2022-11-17T05:20:25.433Z,53.74
2022-11-17T05:22:51.791Z,52.97
2022-11-17T05:25:18.153Z,53.70
2022-11-17T05:27:44.515Z,54.33
2022-11-17T05:30:10.875Z,53.68
2022-11-17T05:32:37.286Z,53.11
2022-11-17T05:35:03.661Z,53.17
2022-11-17T05:37:30.029Z,53.78
2022-11-17T05:39:56.398Z,53.95
2022-11-17T05:42:22.767Z,53.92
2022-11-17T05:44:49.131Z,54.43
2022-11-17T05:47:15.511Z,53.98
2022-11-17T05:49:41.874Z,53.98
2022-11-17T05:52:08.237Z,54.07
2022-11-17T05:54:34.607Z,54.24
2022-11-17T05:57:00.978Z,53.80
2022-11-17T05:59:28.290Z,53.57
2022-11-17T06:01:54.807Z,54.27
2022-11-17T06:04:21.233Z,53.57
2022-11-17T06:06:47.676Z,53.58
2022-11-17T06:09:14.038Z,53.31
2022-11-17T06:11:40.404Z,52.85
2022-11-17T06:14:06.772Z,53.09
2022-11-17T06:16:33.145Z,52.97
2022-11-17T06:19:00.696Z,53.31
2022-11-17T06:21:37.910Z,53.28
2022-11-17T06:24:13.409Z,53.66
2022-11-17T06:26:39.773Z,57.57
2022-11-17T06:29:06.136Z,58.84
2022-11-17T06:31:32.490Z,58.67
2022-11-17T06:33:58.880Z,57.71
2022-11-17T06:36:25.249Z,57.11
2022-11-17T06:38:51.612Z,57.39
2022-11-17T06:41:17.974Z,57.37
2022-11-17T06:43:44.354Z,56.46
2022-11-17T06:46:10.723Z,56.91
2022-11-17T06:48:37.428Z,56.22
2022-11-17T06:51:04.167Z,56.36
2022-11-17T06:53:30.555Z,56.14
2022-11-17T06:55:56.958Z,55.97
2022-11-17T06:58:23.322Z,56.58
2022-11-17T07:00:49.787Z,56.42
2022-11-17T07:03:16.226Z,55.72
2022-11-17T07:05:42.591Z,55.91
2022-11-17T07:08:08.956Z,56.50
2022-11-17T07:10:35.324Z,56.84
2022-11-17T07:13:01.697Z,56.89
2022-11-17T07:15:28.061Z,57.31
2022-11-17T07:17:54.466Z,56.76
2022-11-17T07:20:20.829Z,56.88
2022-11-17T07:22:47.215Z,56.74
2022-11-17T07:25:16.175Z,57.39
2022-11-17T07:27:46.008Z,58.11
2022-11-17T07:30:12.404Z,57.59
2022-11-17T07:32:38.782Z,58.26
2022-11-17T07:35:05.154Z,58.00
2022-11-17T07:37:31.523Z,57.80
2022-11-17T07:39:57.893Z,58.05
2022-11-17T07:42:24.252Z,58.56
2022-11-17T07:44:50.626Z,57.67
2022-11-17T07:47:16.997Z,57.51
2022-11-17T07:49:43.379Z,57.37
2022-11-17T07:52:09.734Z,57.83
2022-11-17T07:54:36.100Z,57.68
2022-11-17T07:57:02.468Z,57.40
2022-11-17T07:59:28.854Z,57.00
2022-11-17T08:01:55.210Z,57.19
2022-11-17T08:04:21.585Z,56.79
2022-11-17T08:06:47.959Z,56.79
2022-11-17T08:09:14.317Z,56.49
2022-11-17T08:11:40.685Z,56.91
2022-11-17T08:14:07.043Z,56.48
2022-11-17T08:16:33.419Z,56.41
2022-11-17T08:18:59.789Z,56.84
2022-11-17T08:21:26.180Z,56.46
2022-11-17T08:23:52.555Z,56.87
2022-11-17T08:26:18.932Z,56.58
2022-11-17T08:28:45.295Z,56.56
2022-11-17T08:31:11.683Z,56.66
2022-11-17T08:33:38.061Z,57.03
2022-11-17T08:36:04.429Z,56.60
2022-11-17T08:38:30.787Z,57.27
2022-11-17T08:40:57.160Z,56.79
2022-11-17T08:43:23.540Z,56.63
2022-11-17T08:45:49.905Z,56.35
2022-11-17T08:48:16.269Z,56.19
2022-11-17T08:50:42.656Z,56.07
2022-11-17T08:53:09.037Z,55.43
2022-11-17T08:55:40.594Z,55.94
2022-11-17T08:58:07.445Z,54.81
2022-11-17T09:00:33.831Z,55.11
2022-11-17T09:03:00.206Z,53.99
2022-11-17T09:05:26.587Z,53.84
2022-11-17T09:07:53.100Z,54.12
2022-11-17T09:10:19.586Z,54.08
2022-11-17T09:12:45.998Z,53.65
2022-11-17T09:15:12.386Z,53.74
2022-11-17T09:17:38.734Z,54.30
2022-11-17T09:20:05.113Z,53.82
2022-11-17T09:22:31.485Z,53.81
2022-11-17T09:24:57.862Z,53.62
2022-11-17T09:27:24.224Z,54.08
2022-11-17T09:29:50.602Z,53.66
2022-11-17T09:32:17.009Z,52.86
2022-11-17T09:34:43.419Z,53.69
2022-11-17T09:37:09.857Z,52.98
2022-11-17T09:39:36.228Z,52.43
2022-11-17T09:42:02.690Z,52.56
2022-11-17T09:44:29.074Z,52.60
2022-11-17T09:46:55.449Z,52.09
2022-11-17T09:49:21.831Z,52.11
2022-11-17T09:51:48.205Z,51.18
2022-11-17T09:54:14.566Z,51.44
2022-11-17T09:56:40.921Z,51.85
2022-11-17T09:59:07.298Z,51.32
2022-11-17T10:01:33.681Z,50.94
2022-11-17T10:04:00.074Z,51.91
2022-11-17T10:06:26.454Z,49.99
2022-11-17T10:08:52.837Z,50.19
2022-11-17T10:11:19.206Z,49.97
2022-11-17T10:13:45.583Z,48.69
2022-11-17T10:16:11.943Z,48.16
2022-11-17T10:18:38.583Z,48.03
2022-11-17T10:21:04.993Z,48.89
2022-11-17T10:23:31.365Z,48.01
2022-11-17T10:25:57.731Z,48.27
2022-11-17T10:28:24.100Z,48.10
2022-11-17T10:30:50.471Z,48.28
2022-11-17T10:33:16.867Z,47.63
2022-11-17T10:35:43.243Z,46.83
2022-11-17T10:38:09.606Z,46.71
2022-11-17T10:40:35.988Z,48.06
2022-11-17T10:43:02.363Z,47.06
2022-11-17T10:45:28.742Z,44.64
2022-11-17T10:47:55.213Z,45.26
2022-11-17T10:50:21.608Z,43.50
2022-11-17T10:52:47.959Z,44.66
2022-11-17T10:55:14.319Z,43.53
2022-11-17T10:57:40.694Z,45.90
2022-11-17T11:00:07.059Z,45.77
2022-11-17T11:02:33.431Z,47.06
2022-11-17T11:05:00.060Z,47.75
2022-11-17T11:07:26.487Z,48.63
2022-11-17T11:09:52.922Z,50.47
2022-11-17T11:12:19.295Z,51.96
2022-11-17T11:14:45.651Z,51.56
2022-11-17T11:17:12.016Z,53.09
2022-11-17T11:19:38.389Z,52.70
2022-11-17T11:22:04.758Z,51.20
2022-11-17T11:24:31.122Z,51.42
2022-11-17T11:26:57.494Z,50.88
2022-11-17T11:29:23.859Z,51.10
2022-11-17T11:31:50.231Z,49.61
2022-11-17T11:34:16.595Z,50.25
2022-11-17T11:36:42.971Z,49.22
2022-11-17T11:39:09.518Z,49.69
2022-11-17T11:41:36.076Z,50.93
2022-11-17T11:44:02.451Z,52.50
2022-11-17T11:46:28.831Z,52.25
2022-11-17T11:48:55.210Z,52.27
2022-11-17T11:51:21.577Z,51.63
2022-11-17T11:53:47.966Z,53.61
2022-11-17T11:56:14.356Z,53.01
2022-11-17T11:58:40.742Z,53.23
2022-11-17T12:01:07.099Z,53.87
2022-11-17T12:03:33.507Z,52.40
2022-11-17T12:05:59.889Z,53.29
2022-11-17T12:08:26.263Z,52.42
2022-11-17T12:10:52.640Z,51.82
2022-11-17T12:13:19.002Z,51.49
2022-11-17T12:15:45.352Z,51.34
2022-11-17T12:18:11.748Z,51.72
2022-11-17T12:20:38.124Z,51.57
2022-11-17T12:23:04.486Z,52.60
2022-11-17T12:25:30.861Z,52.67
2022-11-17T12:27:57.230Z,53.46
2022-11-17T12:30:23.599Z,53.97
2022-11-17T12:32:49.955Z,53.93
2022-11-17T12:35:16.319Z,52.74
2022-11-17T12:37:42.700Z,52.85
2022-11-17T12:40:09.054Z,53.43
2022-11-17T12:42:35.770Z,54.20
2022-11-17T12:45:02.222Z,53.93
2022-11-17T12:47:28.658Z,53.42
2022-11-17T12:49:55.034Z,53.85
2022-11-17T12:52:21.416Z,53.49
2022-11-17T12:54:47.793Z,50.67
2022-11-17T12:57:14.161Z,50.56
2022-11-17T12:59:40.538Z,48.40
2022-11-17T13:02:06.914Z,50.22
2022-11-17T13:04:33.316Z,50.43
2022-11-17T13:06:59.763Z,51.29
2022-11-17T13:09:26.183Z,50.96
2022-11-17T13:11:52.556Z,51.37
2022-11-17T13:14:18.957Z,51.23
2022-11-17T13:16:45.334Z,50.93
2022-11-17T13:19:11.705Z,52.20
2022-11-17T13:21:38.070Z,50.99
2022-11-17T13:24:04.430Z,52.25
2022-11-17T13:26:30.797Z,50.27
2022-11-17T13:28:57.166Z,50.60
2022-11-17T13:31:23.534Z,50.43
2022-11-17T13:33:49.918Z,50.77
2022-11-17T13:36:16.303Z,50.06
2022-11-17T13:38:42.697Z,50.64
2022-11-17T13:41:09.089Z,50.13
2022-11-17T13:43:36.291Z,49.92
2022-11-17T13:46:02.670Z,49.02
2022-11-17T13:48:29.048Z,49.11
2022-11-17T13:50:55.450Z,48.79
2022-11-17T13:53:21.810Z,47.90
2022-11-17T13:55:48.183Z,48.20
2022-11-17T13:58:20.522Z,47.63
2022-11-17T14:00:48.669Z,47.55
2022-11-17T14:03:15.059Z,48.51
2022-11-17T14:05:41.410Z,47.11
2022-11-17T14:08:07.783Z,47.13
2022-11-17T14:10:34.171Z,47.91
2022-11-17T14:13:00.527Z,47.11
2022-11-17T14:15:26.906Z,46.54
2022-11-17T14:17:53.282Z,46.76
2022-11-17T14:20:19.650Z,46.61
2022-11-17T14:22:46.023Z,47.78
2022-11-17T14:25:12.402Z,46.41
2022-11-17T14:27:38.785Z,46.76
2022-11-17T14:30:05.166Z,46.98
2022-11-17T14:32:31.565Z,46.63
2022-11-17T14:34:57.933Z,46.48
2022-11-17T14:37:24.310Z,46.53
2022-11-17T14:39:50.686Z,45.91
2022-11-17T14:42:17.072Z,45.98
2022-11-17T14:44:43.450Z,45.11
2022-11-17T14:47:09.810Z,45.06
2022-11-17T14:49:36.137Z,45.37
2022-11-17T14:52:02.499Z,46.08
2022-11-17T14:54:28.874Z,45.12
2022-11-17T14:56:55.225Z,44.21
2022-11-17T14:59:21.590Z,44.52
2022-11-17T15:01:48.180Z,44.15
2022-11-17T15:04:42.818Z,43.58
2022-11-17T15:07:00.942Z,44.72
2022-11-17T15:09:27.353Z,44.78
2022-11-17T15:11:53.727Z,45.19
2022-11-17T15:14:20.162Z,44.69
2022-11-17T15:16:46.547Z,44.98
2022-11-17T15:19:12.939Z,45.30
2022-11-17T15:21:39.293Z,45.60
2022-11-17T15:24:05.657Z,44.73
2022-11-17T15:26:31.997Z,45.13
2022-11-17T15:28:58.325Z,45.71
2022-11-17T15:31:24.689Z,46.19
2022-11-17T15:33:51.070Z,46.39
2022-11-17T15:36:17.458Z,45.88
2022-11-17T15:38:43.869Z,46.14
2022-11-17T15:41:10.198Z,46.59
2022-11-17T15:43:36.556Z,45.48
2022-11-17T15:46:02.901Z,44.79
2022-11-17T15:48:29.271Z,43.98
2022-11-17T15:50:55.648Z,44.04
2022-11-17T15:53:21.998Z,43.44
2022-11-17T15:55:48.318Z,43.86
2022-11-17T15:58:14.664Z,44.68
2022-11-17T16:00:41.075Z,44.11
2022-11-17T16:03:07.431Z,44.19
2022-11-17T16:05:33.795Z,44.68
2022-11-17T16:08:00.335Z,44.73
2022-11-17T16:10:26.671Z,44.40
2022-11-17T16:12:53.001Z,44.96
2022-11-17T16:15:19.323Z,44.45
2022-11-17T16:17:45.694Z,45.21
2022-11-17T16:20:12.105Z,44.71
2022-11-17T16:22:38.460Z,45.01
2022-11-17T16:25:04.793Z,45.56
2022-11-17T16:27:31.154Z,45.71
2022-11-17T16:29:57.619Z,45.54
2022-11-17T16:32:24.021Z,45.35
2022-11-17T16:34:50.376Z,45.58
2022-11-17T16:37:16.753Z,47.13
2022-11-17T16:39:43.129Z,47.63
2022-11-17T16:42:09.510Z,48.27
2022-11-17T16:44:36.027Z,48.25
2022-11-17T16:47:02.456Z,48.73
2022-11-17T16:49:28.826Z,48.06
2022-11-17T16:51:55.158Z,48.37
2022-11-17T16:54:21.516Z,48.40
2022-11-17T16:56:47.847Z,48.21
2022-11-17T16:59:14.723Z,47.73
2022-11-17T17:01:41.286Z,47.82
2022-11-17T17:04:07.707Z,47.88
2022-11-17T17:06:34.046Z,47.53
2022-11-17T17:09:00.412Z,47.85
2022-11-17T17:11:26.800Z,47.95
2022-11-17T17:13:53.172Z,48.99
2022-11-17T17:16:19.509Z,47.72
2022-11-17T17:18:45.831Z,48.17
2022-11-17T17:21:12.170Z,48.42
2022-11-17T17:23:38.514Z,48.96
2022-11-17T17:26:04.845Z,50.14
2022-11-17T17:28:31.169Z,54.66
2022-11-17T17:30:57.491Z,56.53
2022-11-17T17:33:23.811Z,55.72
2022-11-17T17:35:50.174Z,57.42
2022-11-17T17:38:16.512Z,58.29
2022-11-17T17:40:42.876Z,57.95
2022-11-17T17:43:09.284Z,58.50
2022-11-17T17:45:35.619Z,58.50
2022-11-17T17:48:01.993Z,57.69
2022-11-17T17:50:28.324Z,57.63
2022-11-17T17:52:54.650Z,57.47
2022-11-17T17:55:21.004Z,57.26
2022-11-17T17:57:47.334Z,57.34
2022-11-17T18:00:13.650Z,56.19
2022-11-17T18:02:40.000Z,56.87
2022-11-17T18:05:06.409Z,56.24
2022-11-17T18:07:32.835Z,57.12
2022-11-17T18:09:59.241Z,58.67
2022-11-17T18:12:25.598Z,59.05
2022-11-17T18:14:51.978Z,59.72
2022-11-17T18:17:18.315Z,61.37
2022-11-17T18:19:44.692Z,61.05
2022-11-17T18:22:11.031Z,60.97
2022-11-17T18:24:37.355Z,62.39
2022-11-17T18:27:03.706Z,62.34
2022-11-17T18:29:30.539Z,62.61
2022-11-17T18:31:56.971Z,62.22
2022-11-17T18:34:23.347Z,61.78
2022-11-17T18:36:49.723Z,61.63
2022-11-17T18:39:16.515Z,61.72
2022-11-17T18:41:43.100Z,61.50
2022-11-17T18:44:09.442Z,61.00
2022-11-17T18:46:35.780Z,61.44
2022-11-17T18:49:02.207Z,61.11
2022-11-17T18:51:28.572Z,61.63
2022-11-17T18:53:54.953Z,62.66
2022-11-17T18:56:21.324Z,61.29
2022-11-17T18:58:48.923Z,61.87
2022-11-17T19:01:15.357Z,62.46
2022-11-17T19:03:41.729Z,61.63
2022-11-17T19:06:08.155Z,61.50
2022-11-17T19:08:34.774Z,61.52
2022-11-17T19:11:05.888Z,60.90
2022-11-17T19:13:32.697Z,60.60
2022-11-17T19:15:59.026Z,60.06
2022-11-17T19:18:25.357Z,60.14
2022-11-17T19:20:51.777Z,60.11
2022-11-17T19:23:18.150Z,60.65
2022-11-17T19:25:44.487Z,60.41
2022-11-17T19:28:10.843Z,59.82
2022-11-17T19:30:37.225Z,59.36
2022-11-17T19:33:03.793Z,59.15
2022-11-17T19:35:30.409Z,58.21
2022-11-17T19:37:56.771Z,58.57
2022-11-17T19:40:23.270Z,58.25
2022-11-17T19:42:49.616Z,57.74
2022-11-17T19:45:16.180Z,57.55
2022-11-17T19:47:42.637Z,57.15
2022-11-17T19:50:09.049Z,56.68
2022-11-17T19:52:35.418Z,56.87
2022-11-17T19:55:01.751Z,56.35
2022-11-17T19:57:28.074Z,56.36
2022-11-17T19:59:54.528Z,56.26
2022-11-17T20:02:20.857Z,56.41
2022-11-17T20:04:47.191Z,57.57
2022-11-17T20:07:13.590Z,56.07
2022-11-17T20:09:40.250Z,55.55
2022-11-17T20:12:06.637Z,55.62
2022-11-17T20:14:32.985Z,55.58
2022-11-17T20:16:59.345Z,55.46
2022-11-17T20:19:25.675Z,56.35
2022-11-17T20:21:52.090Z,56.11
2022-11-17T20:24:18.422Z,56.87
2022-11-17T20:26:44.791Z,57.18
2022-11-17T20:29:11.168Z,56.98
2022-11-17T20:31:37.539Z,56.59
2022-11-17T20:34:03.937Z,56.51
2022-11-17T20:36:30.323Z,56.53
2022-11-17T20:38:56.688Z,56.27
2022-11-17T20:41:23.080Z,56.28
2022-11-17T20:43:49.434Z,56.70
2022-11-17T20:46:15.766Z,56.63
2022-11-17T20:48:42.128Z,56.63
2022-11-17T20:51:08.463Z,58.25
2022-11-17T20:53:34.801Z,57.63
2022-11-17T20:56:01.131Z,57.95
2022-11-17T20:58:27.446Z,58.11
2022-11-17T21:00:53.932Z,58.43
2022-11-17T21:03:20.369Z,58.18
2022-11-17T21:05:46.746Z,57.95
2022-11-17T21:08:13.095Z,57.83
2022-11-17T21:10:39.421Z,58.06
2022-11-17T21:13:05.776Z,58.56
2022-11-17T21:15:32.164Z,58.36
2022-11-17T21:17:58.514Z,58.65
2022-11-17T21:20:24.877Z,58.40
2022-11-17T21:22:51.256Z,58.65
2022-11-17T21:25:17.632Z,58.24
2022-11-17T21:27:43.966Z,57.76
2022-11-17T21:30:10.374Z,57.62
2022-11-17T21:32:36.756Z,57.83
2022-11-17T21:35:03.112Z,57.74
2022-11-17T21:37:29.448Z,57.87
2022-11-17T21:39:55.817Z,57.38
2022-11-17T21:42:22.149Z,57.44
2022-11-17T21:44:48.513Z,58.15
2022-11-17T21:47:14.939Z,57.82
2022-11-17T21:49:41.316Z,58.14
2022-11-17T21:52:07.693Z,58.02
2022-11-17T21:54:34.072Z,57.30
2022-11-17T21:57:00.406Z,57.98
2022-11-17T21:59:26.774Z,58.16
2022-11-17T22:01:53.164Z,57.91
2022-11-17T22:04:19.495Z,59.17
2022-11-17T22:06:45.858Z,59.04
2022-11-17T22:09:12.182Z,59.01
2022-11-17T22:11:38.945Z,58.47
2022-11-17T22:14:05.472Z,59.32
2022-11-17T22:16:31.811Z,58.50
2022-11-17T22:18:58.242Z,58.29
2022-11-17T22:21:24.582Z,58.36
2022-11-17T22:23:50.943Z,58.35
2022-11-17T22:26:17.281Z,58.02
2022-11-17T22:28:43.636Z,58.27
2022-11-17T22:31:09.970Z,58.71
2022-11-17T22:33:36.343Z,58.58
2022-11-17T22:36:02.721Z,58.57
2022-11-17T22:38:29.099Z,58.12
2022-11-17T22:40:55.443Z,58.69
2022-11-17T22:43:21.771Z,58.34
2022-11-17T22:45:48.104Z,58.72
2022-11-17T22:48:14.519Z,58.64
2022-11-17T22:50:40.856Z,58.87
2022-11-17T22:53:07.186Z,58.67
2022-11-17T22:55:33.516Z,59.02
2022-11-17T22:57:59.844Z,58.20
2022-11-17T23:00:26.196Z,58.91
2022-11-17T23:02:52.623Z,59.20
2022-11-17T23:05:19.001Z,59.11
2022-11-17T23:07:45.409Z,58.58
2022-11-17T23:10:11.828Z,59.28
2022-11-17T23:12:38.188Z,61.03
2022-11-17T23:15:04.509Z,60.42
2022-11-17T23:17:30.838Z,61.38
2022-11-17T23:19:57.155Z,61.24
2022-11-17T23:22:23.479Z,61.28
2022-11-17T23:24:49.798Z,61.22
2022-11-17T23:27:16.157Z,60.85
2022-11-17T23:29:42.524Z,60.79
2022-11-17T23:32:08.903Z,60.53
2022-11-17T23:34:35.288Z,60.01
2022-11-17T23:37:03.988Z,57.43
2022-11-17T23:39:30.551Z,58.45
2022-11-17T23:41:56.919Z,58.36
2022-11-17T23:44:23.256Z,58.26
2022-11-17T23:46:49.583Z,57.98
2022-11-17T23:49:16.281Z,57.21
2022-11-17T23:51:42.939Z,56.17
2022-11-17T23:54:09.272Z,54.17
2022-11-17T23:56:35.595Z,53.94
2022-11-17T23:59:01.960Z,53.14
